Time;durP1;ratioP1;P1;durP2;ratioP2;P2;SDS_P1;SDS_P2;PMS_P1;PMS_P2;Temp;Humidity;BMP_temperature;BMP_pressure;BME280_temperature;BME280_humidity;BME280_pressure;Samples;Min_cycle;Max_cycle;Signal;HPM_P1;HPM_P2
2022/04/25 00:01:40;;;;;;;2.83;1.80;;;20.70;41.60;;;;;;5036087;28;20033;-62
2022/04/25 00:04:06;;;;;;;2.67;2.22;;;20.70;42.30;;;;;;5033541;28;20045;-63
2022/04/25 00:06:32;;;;;;;1.98;1.77;;;20.70;41.60;;;;;;5051440;28;20068;-63
2022/04/25 00:08:57;;;;;;;3.28;2.22;;;20.70;41.50;;;;;;5036530;28;20037;-61
2022/04/25 00:11:23;;;;;;;2.08;1.83;;;20.70;41.50;;;;;;5033668;28;20461;-61
2022/04/25 00:13:49;;;;;;;2.40;2.03;;;20.70;41.50;;;;;;5048801;28;20041;-65
2022/04/25 00:16:14;;;;;;;3.03;1.80;;;20.70;41.50;;;;;;5033435;28;20037;-65
2022/04/25 00:18:40;;;;;;;1.85;1.75;;;20.70;41.50;;;;;;5036277;28;20591;-64
2022/04/25 00:21:06;;;;;;;2.45;2.00;;;20.70;41.50;;;;;;5033823;28;20698;-62
2022/04/25 00:23:31;;;;;;;2.45;1.90;;;20.70;41.50;;;;;;5035272;28;20041;-62
2022/04/25 00:25:57;;;;;;;4.03;1.73;;;20.60;41.50;;;;;;5034922;28;20443;-62
2022/04/25 00:28:23;;;;;;;2.33;1.70;;;20.70;41.50;;;;;;5035798;28;20045;-61
2022/04/25 00:30:48;;;;;;;2.50;1.90;;;20.60;41.50;;;;;;5034559;28;20511;-62
2022/04/25 00:33:15;;;;;;;2.03;1.80;;;20.60;41.50;;;;;;5033633;28;20385;-63
2022/04/25 00:35:41;;;;;;;2.08;1.88;;;20.60;41.50;;;;;;5032737;28;20343;-63
2022/04/25 00:38:08;;;;;;;2.92;1.90;;;20.60;41.50;;;;;;5035045;28;20497;-61
2022/04/25 00:40:34;;;;;;;2.85;2.00;;;20.60;41.40;;;;;;5042571;28;20128;-62
2022/04/25 00:42:59;;;;;;;3.33;1.73;;;20.60;41.40;;;;;;5035463;28;20124;-62
2022/04/25 00:45:25;;;;;;;2.17;1.95;;;20.60;41.50;;;;;;5048824;28;20068;-62
2022/04/25 00:47:50;;;;;;;2.20;1.85;;;20.60;41.40;;;;;;5034072;28;20060;-63
2022/04/25 00:50:16;;;;;;;2.80;1.92;;;20.60;41.50;;;;;;5032965;28;20045;-61
2022/04/25 00:52:42;;;;;;;2.35;2.15;;;20.60;41.50;;;;;;5049464;28;20115;-63
2022/04/25 00:55:10;;;;;;;2.25;1.90;;;20.60;41.40;;;;;;5034637;28;20056;-62
2022/04/25 00:57:37;;;;;;;2.60;2.08;;;20.60;41.50;;;;;;5031836;28;20402;-63
2022/04/25 01:00:08;;;;;;;2.58;1.90;;;20.60;41.50;;;;;;5050800;28;20451;-63
2022/04/25 01:02:33;;;;;;;2.90;2.00;;;20.60;41.50;;;;;;5035032;28;20041;-62
2022/04/25 01:04:59;;;;;;;2.08;1.88;;;20.50;41.40;;;;;;5048723;28;20079;-63
2022/04/25 01:07:26;;;;;;;2.20;2.00;;;20.50;41.40;;;;;;5034631;28;20038;-62
2022/04/25 01:09:51;;;;;;;2.17;1.95;;;20.50;41.40;;;;;;5049406;28;20389;-61
2022/04/25 01:12:17;;;;;;;2.60;2.15;;;20.50;41.50;;;;;;5034555;28;20038;-62
2022/04/25 01:14:43;;;;;;;1.98;1.75;;;20.50;41.50;;;;;;5034213;28;20761;-62
2022/04/25 01:17:09;;;;;;;2.78;2.00;;;20.50;41.50;;;;;;5034238;28;20120;-61
2022/04/25 01:19:35;;;;;;;2.10;1.90;;;20.50;41.40;;;;;;5032816;28;20123;-63
2022/04/25 01:22:13;;;;;;;2.45;1.80;;;20.50;41.50;;;;;;5033887;28;20056;-63
2022/04/25 01:27:23;;;;;;;3.03;1.98;;;20.50;41.50;;;;;;5033388;28;20498;-61
2022/04/25 01:29:53;;;;;;;2.35;1.85;;;20.50;41.50;;;;;;5034910;28;20463;-62
2022/04/25 01:32:21;;;;;;;3.15;2.13;;;20.50;41.50;;;;;;5035044;28;20386;-62
2022/04/25 01:34:48;;;;;;;2.35;1.80;;;20.50;41.60;;;;;;5037023;28;20037;-63
2022/04/25 01:37:16;;;;;;;3.28;2.47;;;20.50;41.60;;;;;;5036539;28;20053;-62
2022/04/25 01:39:43;;;;;;;2.40;2.15;;;20.50;41.60;;;;;;5030496;28;20085;-61
2022/04/25 01:42:09;;;;;;;2.80;2.13;;;20.50;41.70;;;;;;5032978;28;20047;-64
2022/04/25 01:44:35;;;;;;;2.30;2.10;;;20.50;41.60;;;;;;5034237;28;20677;-63
2022/04/25 01:47:02;;;;;;;2.35;2.15;;;20.50;42.40;;;;;;5036229;28;20096;-60
2022/04/25 01:49:28;;;;;;;2.33;2.10;;;20.50;41.70;;;;;;5034548;28;20037;-61
2022/04/25 01:51:54;;;;;;;2.80;2.20;;;20.50;41.60;;;;;;5033579;28;20038;-61
2022/04/25 01:54:26;;;;;;;2.75;2.10;;;20.50;41.70;;;;;;5033677;28;20504;-64
2022/04/25 01:56:55;;;;;;;2.40;2.20;;;20.50;41.70;;;;;;5033001;28;20047;-62
2022/04/25 01:59:22;;;;;;;2.50;2.30;;;20.50;41.70;;;;;;5050285;28;20076;-60
2022/04/25 02:01:48;;;;;;;2.30;2.10;;;20.50;41.70;;;;;;5027554;28;20037;-62
2022/04/25 02:04:14;;;;;;;2.75;2.35;;;20.40;41.70;;;;;;5030535;28;20061;-62
2022/04/25 02:06:39;;;;;;;2.40;2.20;;;20.40;41.70;;;;;;5048756;28;20047;-61
2022/04/25 02:09:05;;;;;;;3.72;2.30;;;20.50;41.80;;;;;;5033359;28;20068;-62
2022/04/25 02:11:31;;;;;;;3.15;2.25;;;20.40;41.80;;;;;;5048066;28;20037;-62
2022/04/25 02:13:57;;;;;;;2.40;2.20;;;20.40;41.80;;;;;;5048657;28;20037;-61
2022/04/25 02:16:24;;;;;;;2.67;2.28;;;20.40;41.80;;;;;;5031723;28;20041;-63
2022/04/25 02:18:49;;;;;;;2.30;2.10;;;20.40;41.80;;;;;;5034249;28;20405;-61
2022/04/25 02:21:15;;;;;;;2.35;2.15;;;20.40;41.90;;;;;;5031207;28;20044;-62
2022/04/25 02:23:41;;;;;;;2.13;1.90;;;20.40;41.90;;;;;;5035901;28;20102;-61
2022/04/25 02:26:10;;;;;;;2.40;2.20;;;20.40;42.00;;;;;;5033810;28;20041;-61
2022/04/25 02:28:37;;;;;;;2.25;2.05;;;20.40;41.90;;;;;;5034457;28;20127;-62
2022/04/25 02:31:04;;;;;;;2.40;2.10;;;20.40;41.90;;;;;;5032223;28;20100;-64
2022/04/25 02:33:31;;;;;;;2.67;2.08;;;20.40;42.00;;;;;;5032923;28;20037;-61
2022/04/25 02:35:56;;;;;;;2.75;2.10;;;20.40;42.00;;;;;;5031923;28;20071;-63
2022/04/25 02:38:22;;;;;;;2.47;2.20;;;20.40;41.90;;;;;;5033031;28;20033;-61
2022/04/25 02:41:04;;;;;;;4.82;2.60;;;20.40;42.00;;;;;;5032797;28;20113;-63
2022/04/25 02:43:40;;;;;;;2.13;2.00;;;20.40;42.00;;;;;;5030709;28;20048;-61
2022/04/25 02:46:17;;;;;;;2.33;2.10;;;20.40;42.00;;;;;;5033317;28;20069;-62
2022/04/25 02:48:44;;;;;;;3.00;2.40;;;20.40;42.00;;;;;;5033032;28;20163;-61
2022/04/25 02:51:12;;;;;;;3.92;2.33;;;20.40;42.00;;;;;;5033229;28;20053;-62
2022/04/25 02:53:38;;;;;;;2.40;2.20;;;20.40;42.00;;;;;;5045667;28;20041;-61
2022/04/25 02:56:05;;;;;;;2.90;2.03;;;20.40;42.00;;;;;;5033784;28;20048;-61
2022/04/25 02:58:32;;;;;;;2.80;2.15;;;20.40;42.00;;;;;;5031209;28;20555;-61
2022/04/25 03:00:58;;;;;;;2.30;2.10;;;20.40;42.00;;;;;;5033405;28;20051;-64
2022/04/25 03:03:25;;;;;;;3.03;2.15;;;20.40;42.10;;;;;;5034628;28;20614;-61
2022/04/25 03:05:52;;;;;;;2.95;2.20;;;20.40;42.10;;;;;;5032148;28;20133;-62
2022/04/25 03:08:21;;;;;;;3.65;2.45;;;20.40;42.10;;;;;;5035036;28;20091;-62
2022/04/25 03:10:48;;;;;;;2.35;2.15;;;20.40;42.10;;;;;;5035062;28;20055;-63
2022/04/25 03:13:15;;;;;;;2.20;2.00;;;20.40;42.10;;;;;;5033573;28;20045;-61
2022/04/25 03:15:42;;;;;;;2.60;2.40;;;20.40;42.10;;;;;;5036587;28;20480;-61
2022/04/25 03:18:10;;;;;;;4.03;2.20;;;20.40;42.10;;;;;;5035715;28;20049;-62
2022/04/25 03:20:37;;;;;;;2.33;2.13;;;20.40;42.10;;;;;;5021208;28;20393;-63
2022/04/25 03:23:03;;;;;;;4.13;2.42;;;20.30;42.00;;;;;;5035535;28;20401;-62
2022/04/25 03:25:28;;;;;;;2.92;2.30;;;20.30;42.10;;;;;;5034272;28;20060;-62
2022/04/25 03:27:54;;;;;;;3.35;2.50;;;20.30;42.00;;;;;;5036027;28;20115;-61
2022/04/25 03:30:20;;;;;;;3.47;2.60;;;20.30;42.00;;;;;;5051856;28;20107;-62
2022/04/25 03:32:49;;;;;;;2.30;2.10;;;20.30;42.00;;;;;;5035876;28;20195;-63
2022/04/25 03:35:17;;;;;;;2.38;2.17;;;20.30;42.00;;;;;;5050983;28;20037;-63
2022/04/25 03:37:43;;;;;;;3.45;2.20;;;20.30;42.00;;;;;;5051364;28;20412;-61
2022/04/25 03:40:10;;;;;;;3.63;2.67;;;20.30;42.00;;;;;;5035191;28;20037;-63
2022/04/25 03:42:39;;;;;;;2.78;2.30;;;20.30;42.00;;;;;;5051808;28;20037;-61
2022/04/25 03:45:07;;;;;;;3.78;2.63;;;20.30;41.90;;;;;;5036103;28;20114;-61
2022/04/25 03:47:33;;;;;;;3.50;2.20;;;20.30;41.90;;;;;;5035305;28;20226;-63
2022/04/25 03:49:58;;;;;;;2.65;2.13;;;20.30;42.00;;;;;;5036419;28;20128;-63
2022/04/25 03:52:24;;;;;;;2.78;2.22;;;20.30;42.00;;;;;;5034648;28;20057;-61
2022/04/25 03:57:34;;;;;;;2.65;2.22;;;20.30;41.90;;;;;;5036926;28;20053;-62
2022/04/25 03:59:59;;;;;;;2.83;2.47;;;20.30;41.90;;;;;;5034557;28;20059;-62
2022/04/25 04:02:25;;;;;;;2.80;2.38;;;20.30;41.90;;;;;;5045328;28;20214;-62
2022/04/25 04:04:51;;;;;;;3.30;2.30;;;20.30;41.90;;;;;;5033011;28;20036;-63
2022/04/25 04:07:16;;;;;;;2.72;2.20;;;20.30;41.90;;;;;;5033279;28;20041;-62
2022/04/25 04:09:44;;;;;;;3.80;2.70;;;20.30;42.70;;;;;;5037498;28;20082;-61
2022/04/25 04:12:10;;;;;;;2.53;2.17;;;20.30;41.90;;;;;;5033802;28;20823;-61
2022/04/25 04:14:36;;;;;;;2.53;2.25;;;20.30;41.90;;;;;;5031835;28;20204;-61
2022/04/25 04:17:07;;;;;;;3.03;2.50;;;20.30;41.90;;;;;;5035300;28;20095;-62
2022/04/25 04:19:33;;;;;;;2.85;2.33;;;20.30;41.90;;;;;;5030443;28;20072;-62
2022/04/25 04:22:01;;;;;;;2.78;2.47;;;20.20;41.80;;;;;;5039761;28;20051;-61
2022/04/25 04:24:27;;;;;;;2.67;2.40;;;20.30;41.90;;;;;;5032490;28;20056;-63
2022/04/25 04:26:52;;;;;;;2.50;2.30;;;20.20;41.80;;;;;;5034483;28;20041;-62
2022/04/25 04:29:18;;;;;;;2.67;2.40;;;20.20;41.80;;;;;;5032226;28;20045;-62
2022/04/25 04:31:46;;;;;;;2.72;2.22;;;20.30;41.80;;;;;;5035482;28;20218;-62
2022/04/25 04:34:12;;;;;;;3.95;2.33;;;20.20;41.80;;;;;;5034141;28;20083;-62
2022/04/25 04:36:37;;;;;;;2.47;2.10;;;20.20;41.70;;;;;;5035271;28;20052;-62
2022/04/25 04:39:03;;;;;;;2.92;2.38;;;20.20;41.70;;;;;;5036961;28;20033;-61
2022/04/25 04:41:29;;;;;;;2.58;2.10;;;20.20;41.80;;;;;;5037410;28;20033;-61
2022/04/25 04:43:57;;;;;;;3.03;2.40;;;20.20;41.70;;;;;;5032419;28;20048;-63
2022/04/25 04:46:26;;;;;;;5.30;2.40;;;20.20;41.70;;;;;;5036847;28;20041;-61
2022/04/25 04:48:51;;;;;;;4.18;2.03;;;20.20;41.70;;;;;;5033543;28;20109;-61
2022/04/25 04:51:17;;;;;;;3.42;2.45;;;20.20;41.70;;;;;;5035167;28;20072;-62
2022/04/25 04:53:42;;;;;;;3.65;2.30;;;20.20;41.70;;;;;;5034926;28;20120;-61
2022/04/25 04:56:08;;;;;;;3.45;2.50;;;20.20;41.70;;;;;;5034896;28;20037;-65
2022/04/25 04:58:34;;;;;;;2.63;2.40;;;20.20;41.70;;;;;;5033081;28;20040;-62
2022/04/25 05:01:01;;;;;;;3.85;2.50;;;20.20;41.70;;;;;;5036556;28;20060;-63
2022/04/25 05:03:27;;;;;;;3.17;2.30;;;20.20;41.70;;;;;;5032452;28;20374;-65
2022/04/25 05:05:53;;;;;;;2.53;2.00;;;20.20;41.60;;;;;;5033241;28;20127;-61
2022/04/25 05:08:19;;;;;;;4.85;2.50;;;20.20;41.60;;;;;;5036128;28;20056;-61
2022/04/25 05:10:45;;;;;;;4.22;2.60;;;20.20;41.60;;;;;;5032813;28;20581;-61
2022/04/25 05:13:11;;;;;;;3.22;2.30;;;20.20;41.60;;;;;;5036883;28;20124;-62
2022/04/25 05:15:37;;;;;;;2.45;2.25;;;20.20;41.60;;;;;;5033335;28;20049;-60
2022/04/25 05:18:03;;;;;;;3.28;2.42;;;20.20;41.60;;;;;;5037801;28;20075;-61
2022/04/25 05:20:29;;;;;;;2.72;2.20;;;20.20;41.60;;;;;;5034738;28;20060;-61
2022/04/25 05:22:55;;;;;;;2.45;2.15;;;20.20;41.60;;;;;;5038537;28;20037;-61
2022/04/25 05:25:24;;;;;;;2.20;2.00;;;20.20;41.60;;;;;;5033568;28;20040;-62
2022/04/25 05:27:55;;;;;;;2.67;2.17;;;20.20;41.80;;;;;;5032941;28;20065;-61
2022/04/25 05:30:24;;;;;;;3.33;2.80;;;20.20;41.70;;;;;;5033633;28;20148;-62
2022/04/25 05:32:55;;;;;;;5.35;2.72;;;20.20;41.50;;;;;;5030656;28;20085;-63
2022/04/25 05:35:21;;;;;;;;;;;20.20;41.80;;;;;;5034294;28;20508;-62
2022/04/25 05:37:47;;;;;;;5.47;3.22;;;20.10;41.50;;;;;;5039862;28;19920;-65
2022/04/25 05:40:14;;;;;;;4.60;3.25;;;20.10;41.90;;;;;;5035358;28;20041;-62
2022/04/25 05:42:41;;;;;;;4.72;3.38;;;20.10;42.00;;;;;;5033658;28;20051;-61
2022/04/25 05:45:08;;;;;;;3.40;3.10;;;20.10;41.90;;;;;;5031141;28;20083;-63
2022/04/25 05:47:34;;;;;;;5.07;3.40;;;20.10;41.70;;;;;;5030557;28;20456;-63
2022/04/25 05:52:45;;;;;;;5.57;4.07;;;20.20;41.40;;;;;;5033265;28;20374;-62
2022/04/25 05:55:11;;;;;;;5.65;3.63;;;20.10;41.20;;;;;;5031569;28;20079;-63
2022/04/25 05:57:37;;;;;;;4.70;3.47;;;20.20;41.50;;;;;;5030247;28;20496;-61
2022/04/25 06:00:07;;;;;;;5.18;4.10;;;20.20;41.60;;;;;;5035202;28;20051;-63
2022/04/25 06:02:35;;;;;;;4.22;3.22;;;20.20;41.50;;;;;;5034560;28;20041;-64
2022/04/25 06:05:01;;;;;;;5.18;3.53;;;20.10;41.40;;;;;;5034462;28;20029;-63
2022/04/25 06:07:26;;;;;;;5.40;3.47;;;20.20;41.60;;;;;;5034752;28;20470;-61
2022/04/25 06:09:52;;;;;;;6.40;3.33;;;20.20;41.50;;;;;;5034577;28;20493;-62
2022/04/25 06:12:17;;;;;;;8.10;3.63;;;20.20;41.50;;;;;;5034197;28;20079;-62
2022/04/25 06:14:44;;;;;;;6.55;3.65;;;20.20;41.50;;;;;;5031273;28;20087;-64
2022/04/25 06:17:13;;;;;;;5.05;3.55;;;20.20;41.40;;;;;;5032984;28;20045;-62
2022/04/25 06:19:39;;;;;;;5.57;4.13;;;20.20;41.50;;;;;;5031918;28;20443;-60
2022/04/25 06:22:04;;;;;;;7.03;3.58;;;20.20;41.50;;;;;;5036467;28;20488;-60
2022/04/25 06:24:30;;;;;;;4.60;3.40;;;20.20;41.50;;;;;;5035307;28;20044;-59
2022/04/25 06:26:57;;;;;;;4.07;3.60;;;20.20;41.50;;;;;;5034879;28;20087;-64
2022/04/25 06:29:24;;;;;;;6.00;3.65;;;20.20;41.50;;;;;;5041851;28;20037;-62
2022/04/25 06:31:50;;;;;;;6.57;3.60;;;20.20;41.60;;;;;;5034515;28;20057;-61
2022/04/25 06:34:16;;;;;;;5.35;3.40;;;20.20;41.80;;;;;;5034409;28;20508;-64
2022/04/25 06:36:41;;;;;;;3.65;2.75;;;20.10;41.60;;;;;;5032895;28;20045;-63
2022/04/25 06:39:07;;;;;;;6.63;3.63;;;20.20;41.80;;;;;;5034005;28;20040;-62
2022/04/25 06:41:33;;;;;;;6.68;3.53;;;20.20;41.80;;;;;;5046540;28;20124;-63
2022/04/25 06:43:59;;;;;;;6.78;3.80;;;20.20;42.20;;;;;;5039670;28;20076;-63
2022/04/25 06:46:29;;;;;;;7.53;3.30;;;20.20;42.30;;;;;;5034917;28;20052;-66
2022/04/25 06:51:39;;;;;;;6.00;3.15;;;20.20;42.60;;;;;;5037756;28;20052;-61
2022/04/25 06:54:06;;;;;;;5.05;3.38;;;20.20;42.50;;;;;;5034925;28;20067;-62
2022/04/25 06:56:32;;;;;;;4.57;3.55;;;20.20;42.60;;;;;;5039172;28;20151;-61
2022/04/25 06:58:57;;;;;;;7.30;3.55;;;20.20;42.60;;;;;;5038074;28;20036;-62
2022/04/25 07:01:23;;;;;;;8.30;3.70;;;20.20;42.80;;;;;;5036052;28;20127;-61
2022/04/25 07:03:48;;;;;;;5.90;3.28;;;20.20;42.90;;;;;;5050536;28;20076;-61
2022/04/25 07:06:14;;;;;;;4.40;3.53;;;20.20;42.90;;;;;;5037481;28;20049;-61
2022/04/25 07:08:39;;;;;;;7.38;3.60;;;20.20;42.80;;;;;;5036711;28;20038;-62
2022/04/25 07:11:05;;;;;;;7.28;3.58;;;20.20;42.70;;;;;;5037253;28;20029;-62
2022/04/25 07:13:30;;;;;;;5.63;3.42;;;20.20;42.70;;;;;;5020750;28;20056;-63
2022/04/25 07:15:56;;;;;;;5.35;3.75;;;20.20;42.70;;;;;;5036356;28;20780;-64
2022/04/25 07:18:21;;;;;;;6.20;4.85;;;20.20;42.70;;;;;;5037115;28;20041;-62
2022/04/25 07:20:47;;;;;;;15.43;6.13;;;20.20;42.30;;;;;;5037796;28;20036;-64
2022/04/25 07:28:48;;;;;;;8.35;5.38;;;20.00;42.50;;;;;;5015475;28;20045;-62
2022/04/25 07:31:17;;;;;;;6.90;4.70;;;20.00;42.00;;;;;;5035039;28;20137;-62
2022/04/25 07:33:43;;;;;;;6.47;4.90;;;20.00;42.00;;;;;;5049650;28;20175;-62
2022/04/25 07:36:09;;;;;;;8.20;6.03;;;20.00;42.10;;;;;;5027342;28;20049;-62
2022/04/25 07:38:39;;;;;;;9.18;5.40;;;20.00;42.00;;;;;;5052617;28;20056;-64
2022/04/25 07:41:07;;;;;;;7.47;5.13;;;20.00;41.70;;;;;;5042205;28;20041;-62
2022/04/25 07:43:34;;;;;;;9.75;5.35;;;20.00;41.70;;;;;;5037966;28;20291;-61
2022/04/25 07:46:00;;;;;;;5.50;4.90;;;20.00;41.80;;;;;;5036165;28;20056;-61
2022/04/25 07:48:26;;;;;;;6.25;5.07;;;20.00;41.90;;;;;;5037464;28;20044;-61
2022/04/25 07:50:52;;;;;;;6.28;4.85;;;20.00;42.00;;;;;;5036212;28;20049;-64
2022/04/25 07:53:18;;;;;;;8.32;4.93;;;20.00;41.90;;;;;;5034633;28;20409;-63
2022/04/25 07:55:43;;;;;;;8.73;4.60;;;20.00;42.00;;;;;;5036230;28;20044;-62
2022/04/25 07:58:09;;;;;;;8.63;5.03;;;20.00;42.00;;;;;;5035878;28;20512;-62
2022/04/25 08:00:35;;;;;;;7.32;4.30;;;20.00;42.20;;;;;;5034402;28;20033;-61
2022/04/25 08:03:02;;;;;;;8.25;4.90;;;20.00;42.30;;;;;;5035085;28;20055;-61
2022/04/25 08:05:27;;;;;;;7.95;4.93;;;20.00;42.50;;;;;;5049089;28;20102;-61
2022/04/25 08:07:53;;;;;;;7.03;4.60;;;20.00;42.90;;;;;;5033635;28;20041;-63
2022/04/25 08:10:19;;;;;;;5.05;4.32;;;20.00;42.90;;;;;;5035543;28;20033;-62
2022/04/25 08:18:13;;;;;;;5.65;4.60;;;20.10;43.10;;;;;;5041692;28;20088;-62
2022/04/25 08:20:40;;;;;;;8.35;4.30;;;20.10;43.20;;;;;;5030116;28;20417;-61
2022/04/25 08:23:11;;;;;;;7.57;4.57;;;20.10;43.40;;;;;;5029025;28;20076;-62
2022/04/25 08:25:38;;;;;;;7.25;4.53;;;20.10;43.40;;;;;;5031305;28;20179;-63
2022/04/25 08:28:05;;;;;;;7.60;4.40;;;20.20;43.40;;;;;;5029828;28;20043;-61
2022/04/25 08:30:30;;;;;;;6.47;4.57;;;20.20;43.10;;;;;;5027997;28;20092;-62
2022/04/25 08:32:57;;;;;;;6.65;4.15;;;20.20;43.20;;;;;;5030639;28;20071;-62
2022/04/25 08:35:23;;;;;;;6.70;4.80;;;20.20;43.50;;;;;;5030938;28;20048;-62
2022/04/25 08:37:49;;;;;;;6.30;4.13;;;20.20;43.50;;;;;;5031389;28;20092;-63
2022/04/25 08:40:15;;;;;;;5.88;4.38;;;20.20;43.80;;;;;;5030295;28;20404;-61
2022/04/25 08:42:43;;;;;;;5.32;4.20;;;20.20;43.70;;;;;;5032940;28;20086;-62
2022/04/25 08:45:13;;;;;;;5.78;4.43;;;20.20;43.80;;;;;;5034729;28;20091;-61
2022/04/25 08:47:57;;;;;;;5.73;4.37;;;20.20;43.80;;;;;;5031447;28;20404;-66
2022/04/25 08:50:23;;;;;;;5.90;4.93;;;20.20;43.90;;;;;;5040216;28;20466;-62
2022/04/25 08:52:49;;;;;;;7.30;4.45;;;20.20;43.90;;;;;;5034210;28;20045;-61
2022/04/25 08:55:16;;;;;;;5.57;4.72;;;20.20;44.10;;;;;;5048847;28;20041;-64
2022/04/25 08:57:43;;;;;;;9.18;4.32;;;20.20;44.10;;;;;;5036148;28;20040;-60
2022/04/25 09:00:10;;;;;;;4.65;4.15;;;20.20;43.90;;;;;;5032686;28;20073;-62
2022/04/25 09:02:38;;;;;;;5.13;3.88;;;20.20;44.00;;;;;;5029833;28;20041;-62
2022/04/25 09:05:11;;;;;;;4.90;4.25;;;20.20;44.10;;;;;;5048914;28;20033;-61
2022/04/25 09:07:38;;;;;;;4.70;4.10;;;20.20;44.00;;;;;;5035064;28;20055;-63
2022/04/25 09:10:09;;;;;;;5.07;3.90;;;20.30;44.20;;;;;;5030129;28;20048;-62
2022/04/25 09:12:38;;;;;;;4.40;3.67;;;20.30;44.20;;;;;;5036488;28;20068;-62
2022/04/25 09:15:06;;;;;;;4.57;3.72;;;20.30;44.20;;;;;;5031288;28;20038;-61
2022/04/25 09:17:32;;;;;;;11.70;4.10;;;20.30;44.30;;;;;;5038367;28;20052;-61
2022/04/25 09:19:58;;;;;;;5.53;3.83;;;20.30;44.40;;;;;;5039347;28;20064;-64
2022/04/25 09:22:32;;;;;;;5.85;4.00;;;20.30;44.40;;;;;;5029915;28;20036;-62
2022/04/25 09:25:09;;;;;;;8.95;4.10;;;20.30;44.40;;;;;;5032020;28;20052;-62
2022/04/25 09:27:36;;;;;;;5.72;4.38;;;20.30;44.50;;;;;;5032877;28;20040;-61
2022/04/25 09:30:16;;;;;;;6.60;4.07;;;20.30;44.40;;;;;;5033337;28;20417;-62
2022/04/25 09:32:43;;;;;;;5.72;3.60;;;20.30;44.70;;;;;;5048654;28;20045;-62
2022/04/25 09:35:30;;;;;;;7.53;3.83;;;20.30;44.50;;;;;;5032265;28;20080;-62
2022/04/25 09:37:58;;;;;;;5.45;3.97;;;20.30;44.50;;;;;;5033178;28;20077;-63
2022/04/25 09:40:26;;;;;;;7.05;3.88;;;20.30;44.30;;;;;;5033759;28;20542;-61
2022/04/25 09:43:11;;;;;;;5.15;4.28;;;20.30;44.20;;;;;;5047836;28;20136;-62
2022/04/25 09:45:41;;;;;;;5.90;3.88;;;20.30;44.20;;;;;;5033944;28;20033;-61
2022/04/25 09:48:18;;;;;;;6.45;3.60;;;20.30;44.20;;;;;;5018429;28;20041;-63
2022/04/25 09:51:02;;;;;;;7.18;3.95;;;20.30;44.10;;;;;;5031568;28;20529;-61
2022/04/25 09:53:55;;;;;;;5.82;4.28;;;20.30;44.00;;;;;;5032285;28;20045;-63
2022/04/25 09:56:21;;;;;;;6.07;4.15;;;20.30;44.50;;;;;;5032068;28;20041;-61
2022/04/25 09:59:18;;;;;;;5.93;4.57;;;20.30;43.90;;;;;;5032240;28;20117;-62
2022/04/25 10:01:45;;;;;;;3.65;3.35;;;20.30;43.90;;;;;;5012667;28;20576;-62
2022/04/25 10:04:34;;;;;;;7.93;4.03;;;20.30;43.90;;;;;;5033772;28;20508;-62
2022/04/25 10:07:05;;;;;;;5.07;3.97;;;20.30;43.80;;;;;;5023621;28;20048;-61
2022/04/25 10:09:33;;;;;;;5.70;3.90;;;20.30;43.80;;;;;;5036947;28;20046;-62
2022/04/25 10:12:00;;;;;;;4.85;4.10;;;20.30;43.80;;;;;;5033585;28;20366;-64
2022/04/25 10:14:27;;;;;;;5.57;4.03;;;20.30;43.70;;;;;;5031884;28;20512;-62
2022/04/25 10:16:55;;;;;;;5.25;4.10;;;20.30;43.80;;;;;;5032123;28;20061;-61
2022/04/25 10:19:22;;;;;;;4.75;4.07;;;20.30;43.70;;;;;;5034022;28;20045;-62
2022/04/25 10:21:49;;;;;;;4.97;3.78;;;20.30;43.90;;;;;;5031046;28;21302;-61
2022/04/25 10:24:18;;;;;;;4.47;4.07;;;20.30;43.70;;;;;;5031237;28;20115;-62
2022/04/25 10:26:44;;;;;;;7.00;4.13;;;20.30;43.80;;;;;;5046681;28;20047;-62
2022/04/25 10:29:14;;;;;;;6.88;4.35;;;20.30;43.90;;;;;;5031611;28;20061;-62
2022/04/25 10:31:42;;;;;;;5.57;3.93;;;20.30;44.10;;;;;;5031764;28;20055;-64
2022/04/25 10:34:09;;;;;;;6.10;4.43;;;20.30;44.10;;;;;;5031880;28;20052;-62
2022/04/25 10:36:38;;;;;;;7.05;4.57;;;20.30;44.20;;;;;;5046697;28;20393;-62
2022/04/25 10:39:20;;;;;;;5.05;4.15;;;20.40;44.30;;;;;;5046247;28;20077;-62
2022/04/25 10:44:36;;;;;;;5.35;3.80;;;20.40;44.30;;;;;;5032694;28;20516;-62
2022/04/25 10:47:05;;;;;;;7.57;3.33;;;20.30;44.50;;;;;;5030213;28;20118;-64
2022/04/25 10:49:32;;;;;;;3.60;3.22;;;20.40;44.40;;;;;;5046060;28;20047;-61
2022/04/25 10:51:59;;;;;;;4.72;3.40;;;20.40;44.40;;;;;;5031474;28;20044;-62
2022/04/25 10:54:28;;;;;;;4.70;3.47;;;20.30;44.30;;;;;;5034278;28;20086;-63
2022/04/25 10:57:09;;;;;;;3.63;3.33;;;20.40;44.30;;;;;;5033393;28;20038;-63
2022/04/25 10:59:35;;;;;;;6.10;3.50;;;20.40;44.20;;;;;;5032745;28;20056;-61
2022/04/25 11:02:23;;;;;;;3.70;3.17;;;20.30;44.00;;;;;;5031924;28;20878;-62
2022/04/25 11:05:11;;;;;;;4.18;3.70;;;20.40;44.10;;;;;;5048740;28;20506;-62
2022/04/25 11:07:41;;;;;;;3.60;3.20;;;20.40;44.10;;;;;;5030758;28;20072;-62
2022/04/25 11:10:11;;;;;;;3.60;3.30;;;20.40;44.10;;;;;;5049184;28;20045;-62
2022/04/25 11:12:56;;;;;;;3.70;3.33;;;20.30;44.10;;;;;;5031207;28;20294;-62
2022/04/25 11:15:42;;;;;;;5.50;4.03;;;20.40;43.90;;;;;;5036018;28;20083;-64
2022/04/25 11:18:35;;;;;;;5.13;3.35;;;20.30;44.70;;;;;;5047932;28;20048;-61
2022/04/25 11:21:08;;;;;;;4.82;3.33;;;20.30;44.00;;;;;;5031967;28;20136;-61
2022/04/25 11:23:34;;;;;;;6.63;3.90;;;20.30;44.10;;;;;;5049900;28;20073;-64
2022/04/25 11:26:01;;;;;;;6.72;3.53;;;20.40;44.10;;;;;;5038040;28;20128;-62
2022/04/25 11:28:27;;;;;;;5.55;3.33;;;20.40;44.30;;;;;;5029911;28;20063;-61
2022/04/25 11:31:15;;;;;;;4.00;2.95;;;20.30;44.20;;;;;;5046417;28;20056;-63
2022/04/25 11:33:45;;;;;;;4.55;2.90;;;20.40;44.40;;;;;;5047095;28;20073;-64
2022/04/25 11:36:13;;;;;;;4.30;3.40;;;20.40;44.40;;;;;;5033224;28;20033;-64
2022/04/25 11:41:25;;;;;;;3.53;3.13;;;20.40;44.50;;;;;;5051582;28;20056;-63
2022/04/25 11:43:51;;;;;;;3.50;3.10;;;20.40;44.40;;;;;;5051187;28;20033;-62
2022/04/25 11:46:17;;;;;;;3.50;2.95;;;20.30;44.50;;;;;;5037466;28;20047;-63
2022/04/25 11:48:48;;;;;;;3.78;3.00;;;20.40;44.40;;;;;;5036529;28;20102;-62
2022/04/25 11:51:24;;;;;;;4.40;2.70;;;20.40;44.40;;;;;;5051016;28;20147;-60
2022/04/25 11:53:58;;;;;;;7.50;3.35;;;20.40;44.40;;;;;;5035590;28;20045;-61
2022/04/25 11:56:25;;;;;;;5.22;2.80;;;20.40;44.30;;;;;;5042681;28;20118;-61
2022/04/25 11:58:52;;;;;;;4.88;3.00;;;20.40;44.30;;;;;;5032499;28;20349;-62
2022/04/25 12:01:38;;;;;;;4.35;2.88;;;20.40;44.20;;;;;;5035765;28;20045;-61
2022/04/25 12:04:23;;;;;;;5.82;2.70;;;20.40;44.20;;;;;;5043300;28;20108;-61
2022/04/25 12:06:52;;;;;;;4.43;3.00;;;20.40;44.60;;;;;;5035974;28;20408;-62
2022/04/25 12:17:42;;;;;;;3.75;2.92;;;20.30;44.40;;;;;;5034250;28;20060;-62
2022/04/25 12:20:09;;;;;;;2.97;2.30;;;20.40;44.50;;;;;;5049293;28;20044;-62
2022/04/25 12:22:36;;;;;;;5.93;2.90;;;20.40;44.50;;;;;;5032869;28;20171;-62
2022/04/25 12:25:14;;;;;;;4.32;2.92;;;20.40;44.50;;;;;;5050856;28;20082;-63
2022/04/25 12:27:56;;;;;;;3.33;2.70;;;20.40;44.50;;;;;;5035257;28;20079;-62
2022/04/25 12:30:21;;;;;;;6.57;3.17;;;20.40;44.50;;;;;;5033401;28;20045;-62
2022/04/25 12:32:47;;;;;;;3.33;2.88;;;20.40;44.50;;;;;;5035031;28;20602;-61
2022/04/25 12:35:19;;;;;;;3.22;2.75;;;20.40;44.40;;;;;;5033424;28;20050;-63
2022/04/25 12:37:44;;;;;;;4.65;2.72;;;20.40;44.40;;;;;;5033655;28;20049;-62
2022/04/25 12:40:11;;;;;;;3.78;2.70;;;20.40;44.40;;;;;;5033477;28;20378;-63
2022/04/25 12:42:44;;;;;;;2.53;2.33;;;20.40;44.50;;;;;;5035976;28;20091;-62
2022/04/25 12:45:09;;;;;;;3.13;2.70;;;20.40;44.50;;;;;;5024589;28;20420;-62
2022/04/25 12:47:35;;;;;;;2.78;2.30;;;20.40;44.50;;;;;;5052410;28;20036;-62
2022/04/25 12:50:03;;;;;;;3.08;2.65;;;20.40;44.50;;;;;;5032972;28;20064;-62
2022/04/25 12:52:44;;;;;;;2.70;2.50;;;20.40;44.40;;;;;;5035896;28;20045;-64
2022/04/25 12:55:10;;;;;;;2.95;2.60;;;20.40;44.50;;;;;;5033975;28;20109;-63
2022/04/25 12:57:36;;;;;;;3.50;2.65;;;20.40;44.50;;;;;;5033522;28;20037;-61
2022/04/25 13:00:04;;;;;;;2.28;2.08;;;20.40;44.50;;;;;;5035747;28;20055;-62
2022/04/25 13:02:37;;;;;;;2.30;2.10;;;20.40;44.50;;;;;;5033868;28;20045;-61
2022/04/25 13:05:03;;;;;;;2.90;2.28;;;20.40;44.40;;;;;;5032679;28;20112;-61
2022/04/25 13:07:30;;;;;;;3.72;2.30;;;20.40;44.40;;;;;;5050514;28;20120;-61
2022/04/25 13:09:58;;;;;;;3.45;2.20;;;20.40;44.50;;;;;;5036227;28;20064;-62
2022/04/25 13:12:31;;;;;;;2.55;2.35;;;20.40;44.50;;;;;;5031775;28;20174;-62
2022/04/25 13:14:57;;;;;;;3.30;2.47;;;20.40;44.50;;;;;;5050846;28;20080;-61
2022/04/25 13:17:23;;;;;;;4.47;2.63;;;20.40;44.50;;;;;;5030579;28;20521;-64
2022/04/25 13:19:48;;;;;;;3.80;2.50;;;20.40;44.50;;;;;;5033988;28;20037;-62
2022/04/25 13:22:14;;;;;;;2.88;2.28;;;20.40;44.50;;;;;;5032855;28;20067;-61
2022/04/25 13:24:39;;;;;;;3.13;2.25;;;20.40;44.40;;;;;;5033672;28;20395;-64
2022/04/25 13:27:08;;;;;;;3.47;2.83;;;20.40;44.40;;;;;;5034419;28;20053;-64
2022/04/25 13:29:34;;;;;;;2.80;2.50;;;20.40;44.50;;;;;;5032828;28;20099;-62